createdAt,value
2022-09-07T00:00:17.758Z,2.58
2022-09-07T00:02:44.920Z,2.30
2022-09-07T00:05:18.549Z,2.42
2022-09-07T00:07:45.848Z,2.42
2022-09-07T00:10:13.296Z,2.50
2022-09-07T00:12:47.483Z,1.55
2022-09-07T00:15:21.263Z,1.80
2022-09-07T00:18:01.387Z,1.65
2022-09-07T00:20:28.595Z,2.00
2022-09-07T00:22:55.728Z,2.20
2022-09-07T00:25:31.870Z,2.00
2022-09-07T00:27:59.418Z,2.10
2022-09-07T00:30:27.851Z,2.20
2022-09-07T00:33:01.409Z,2.70
2022-09-07T00:35:28.689Z,2.78
2022-09-07T00:37:55.823Z,2.22
2022-09-07T00:40:29.466Z,2.60
2022-09-07T00:42:56.689Z,2.55
2022-09-07T00:45:24.033Z,2.05
2022-09-07T00:48:04.720Z,1.70
2022-09-07T00:50:32.057Z,2.10
2022-09-07T00:53:13.423Z,1.60
2022-09-07T00:55:41.673Z,1.88
2022-09-07T00:58:09.062Z,1.90
2022-09-07T01:00:43.424Z,2.20
2022-09-07T01:03:11.506Z,2.45
2022-09-07T01:05:53.442Z,2.22
2022-09-07T01:08:20.699Z,2.55
2022-09-07T01:10:47.977Z,2.40
2022-09-07T01:13:24.519Z,2.40
2022-09-07T01:16:01.301Z,2.67
2022-09-07T01:18:35.447Z,2.50
2022-09-07T01:21:21.497Z,2.45
2022-09-07T01:24:15.391Z,2.70
2022-09-07T01:26:57.574Z,2.40
2022-09-07T01:29:39.485Z,2.67
2022-09-07T01:32:06.592Z,2.75
2022-09-07T01:34:33.848Z,3.13
2022-09-07T01:37:16.516Z,2.08
2022-09-07T01:39:53.079Z,2.33
2022-09-07T01:42:28.508Z,2.58
2022-09-07T01:45:00.872Z,2.40
2022-09-07T01:47:37.494Z,2.20
2022-09-07T01:50:10.798Z,1.70
2022-09-07T01:53:03.444Z,2.13
2022-09-07T01:55:34.118Z,2.30
2022-09-07T01:58:13.395Z,2.50
2022-09-07T02:00:43.491Z,2.28
2022-09-07T02:03:27.494Z,2.28
2022-09-07T02:06:00.564Z,2.30
2022-09-07T02:08:40.399Z,2.13
2022-09-07T02:11:30.070Z,2.20
2022-09-07T02:14:10.464Z,2.30
2022-09-07T02:17:00.299Z,1.88
2022-09-07T02:19:36.538Z,2.08
2022-09-07T02:22:06.073Z,2.20
2022-09-07T02:24:46.569Z,2.30
2022-09-07T02:27:19.998Z,2.40
2022-09-07T02:29:53.301Z,2.67
2022-09-07T02:32:20.588Z,2.70
2022-09-07T02:34:47.727Z,2.88
2022-09-07T02:37:22.308Z,2.65
2022-09-07T02:39:49.612Z,2.50
2022-09-07T02:42:16.795Z,2.17
2022-09-07T02:44:53.310Z,1.92
2022-09-07T02:47:38.672Z,2.20
2022-09-07T02:50:25.467Z,2.25
2022-09-07T02:53:03.079Z,2.97
2022-09-07T02:55:37.475Z,3.60
2022-09-07T02:58:12.507Z,3.10
2022-09-07T03:00:50.303Z,2.70
2022-09-07T03:03:17.618Z,2.70
2022-09-07T03:05:59.528Z,2.45
2022-09-07T03:08:37.946Z,2.25
2022-09-07T03:11:12.567Z,2.28
2022-09-07T03:13:39.856Z,2.42
2022-09-07T03:16:21.466Z,2.35
2022-09-07T03:18:48.808Z,2.50
2022-09-07T03:21:16.037Z,2.70
2022-09-07T03:23:51.830Z,2.97
2022-09-07T03:26:25.252Z,2.70
2022-09-07T03:28:59.441Z,3.20
2022-09-07T03:31:26.811Z,3.10
2022-09-07T03:33:55.282Z,2.40
2022-09-07T03:36:29.466Z,2.70
2022-09-07T03:38:58.671Z,2.47
2022-09-07T03:41:26.769Z,2.75
2022-09-07T03:44:01.532Z,2.78
2022-09-07T03:46:29.070Z,2.90
2022-09-07T03:48:56.252Z,2.78
2022-09-07T03:51:30.481Z,2.08
2022-09-07T03:53:57.716Z,2.78
2022-09-07T03:56:25.351Z,2.75
2022-09-07T04:01:27.215Z,2.55
2022-09-07T04:04:01.376Z,2.75
2022-09-07T04:06:36.334Z,2.40
2022-09-07T04:09:07.516Z,2.53
2022-09-07T04:11:35.746Z,3.15
2022-09-07T04:14:09.593Z,2.70
2022-09-07T04:16:45.424Z,3.17
2022-09-07T04:19:19.609Z,3.42
2022-09-07T04:21:47.112Z,3.70
2022-09-07T04:24:17.638Z,3.10
2022-09-07T04:26:52.570Z,2.60
2022-09-07T04:29:19.811Z,2.42
2022-09-07T04:31:46.953Z,2.38
2022-09-07T04:34:21.433Z,2.42
2022-09-07T04:36:48.760Z,2.60
2022-09-07T04:39:15.930Z,2.47
2022-09-07T04:41:49.543Z,3.10
2022-09-07T04:44:17.261Z,2.78
2022-09-07T04:46:44.645Z,2.90
2022-09-07T04:49:19.551Z,2.30
2022-09-07T04:51:46.867Z,2.33
2022-09-07T04:54:14.000Z,2.50
2022-09-07T04:56:47.488Z,1.90
2022-09-07T04:59:14.741Z,2.28
2022-09-07T05:01:41.948Z,2.72
2022-09-07T05:04:16.592Z,3.58
2022-09-07T05:06:43.825Z,2.63
2022-09-07T05:09:11.139Z,2.60
2022-09-07T05:11:45.475Z,2.38
2022-09-07T05:14:12.709Z,2.83
2022-09-07T05:16:59.551Z,2.40
2022-09-07T05:19:28.004Z,2.60
2022-09-07T05:22:16.499Z,2.72
2022-09-07T05:24:43.646Z,2.42
2022-09-07T05:27:10.928Z,2.90
2022-09-07T05:32:27.240Z,2.45
2022-09-07T05:35:01.595Z,2.40
2022-09-07T05:37:28.845Z,2.80
2022-09-07T05:39:57.060Z,2.78
2022-09-07T05:42:31.534Z,2.78
2022-09-07T05:44:58.822Z,2.75
2022-09-07T05:47:26.070Z,3.03
2022-09-07T05:50:01.624Z,2.88
2022-09-07T05:52:31.617Z,3.10
2022-09-07T05:55:13.116Z,2.83
2022-09-07T05:57:52.545Z,2.85
2022-09-07T06:00:21.477Z,3.40
2022-09-07T06:02:49.096Z,3.25
2022-09-07T06:07:49.751Z,3.28
2022-09-07T06:13:11.522Z,3.58
2022-09-07T06:16:06.296Z,3.28
2022-09-07T06:18:41.587Z,4.15
2022-09-07T06:21:09.880Z,3.65
2022-09-07T06:23:38.779Z,3.97
2022-09-07T06:26:13.489Z,4.57
2022-09-07T06:28:41.921Z,4.05
2022-09-07T06:31:10.663Z,4.78
2022-09-07T06:33:44.634Z,4.35
2022-09-07T06:36:13.041Z,3.40
2022-09-07T06:38:40.460Z,3.30
2022-09-07T06:44:02.666Z,4.30
2022-09-07T06:49:23.786Z,2.70
2022-09-07T06:51:57.549Z,3.20
2022-09-07T06:57:18.497Z,2.90
2022-09-07T06:59:45.712Z,2.90
2022-09-07T07:02:16.222Z,2.85
2022-09-07T07:04:50.478Z,3.15
2022-09-07T07:07:17.802Z,3.30
2022-09-07T07:09:44.947Z,2.97
2022-09-07T07:14:45.303Z,2.67
2022-09-07T07:17:32.323Z,2.70
2022-09-07T07:19:59.663Z,2.88
2022-09-07T07:22:46.263Z,2.53
2022-09-07T07:25:21.554Z,2.42
2022-09-07T07:27:48.860Z,2.40
2022-09-07T07:30:20.871Z,2.70
2022-09-07T07:32:55.499Z,2.45
2022-09-07T07:35:23.204Z,2.40
2022-09-07T07:40:29.025Z,1.80
2022-09-07T07:42:58.015Z,1.95
2022-09-07T07:48:18.633Z,1.63
2022-09-07T07:50:52.573Z,1.52
2022-09-07T07:58:45.502Z,1.33
2022-09-07T08:01:13.601Z,1.45
2022-09-07T08:03:48.432Z,1.30
2022-09-07T08:06:16.908Z,1.23
2022-09-07T08:08:44.690Z,1.33
2022-09-07T08:11:20.507Z,0.82
2022-09-07T08:13:49.557Z,1.10
2022-09-07T08:16:36.526Z,0.77
2022-09-07T08:19:05.645Z,0.82
2022-09-07T08:21:32.805Z,0.90
2022-09-07T08:24:06.534Z,1.02
2022-09-07T08:26:33.728Z,0.98
2022-09-07T08:29:00.807Z,1.00
2022-09-07T08:31:34.710Z,1.02
2022-09-07T08:34:01.990Z,1.02
2022-09-07T08:36:31.743Z,1.00
2022-09-07T08:39:06.451Z,1.20
2022-09-07T08:41:36.534Z,0.80
2022-09-07T08:44:13.596Z,0.95
2022-09-07T08:46:59.268Z,1.00
2022-09-07T08:49:36.521Z,0.82
2022-09-07T08:52:05.630Z,0.70
2022-09-07T08:54:33.180Z,0.82
2022-09-07T09:00:10.172Z,0.95
2022-09-07T09:02:46.309Z,0.60
2022-09-07T09:05:52.042Z,0.80
2022-09-07T09:08:28.581Z,0.80
2022-09-07T09:11:01.995Z,0.93
2022-09-07T09:13:48.767Z,0.70
2022-09-07T09:16:32.293Z,0.80
2022-09-07T09:19:09.477Z,0.88
2022-09-07T09:21:36.734Z,0.90
2022-09-07T09:24:22.691Z,0.70
2022-09-07T09:29:27.762Z,1.05
2022-09-07T09:31:54.966Z,0.93
2022-09-07T09:34:25.451Z,1.10
2022-09-07T09:37:02.430Z,0.90
2022-09-07T09:39:32.372Z,1.00
2022-09-07T09:42:26.724Z,0.93
2022-09-07T09:44:54.372Z,0.80
2022-09-07T09:47:33.532Z,0.90
2022-09-07T09:53:29.593Z,0.73
2022-09-07T09:55:57.038Z,0.88
2022-09-07T10:01:32.091Z,0.70
2022-09-07T10:06:30.224Z,0.75
2022-09-07T10:09:05.402Z,0.80
2022-09-07T10:14:38.502Z,0.77
2022-09-07T10:17:20.370Z,0.80
2022-09-07T10:20:04.528Z,0.88
2022-09-07T10:22:36.389Z,1.05
2022-09-07T10:25:30.584Z,0.80
2022-09-07T10:28:05.870Z,0.70
2022-09-07T10:30:45.619Z,1.10
2022-09-07T10:33:21.299Z,0.85
2022-09-07T10:36:07.639Z,0.90
2022-09-07T10:38:37.564Z,0.80
2022-09-07T10:41:16.572Z,0.90
2022-09-07T10:43:48.421Z,1.00
2022-09-07T10:49:24.836Z,0.80
2022-09-07T10:51:58.526Z,0.95
2022-09-07T10:54:33.136Z,0.90
2022-09-07T10:57:10.636Z,0.90
2022-09-07T11:05:52.820Z,1.02
2022-09-07T11:09:20.999Z,0.70
2022-09-07T11:12:07.200Z,0.85
2022-09-07T11:15:10.560Z,0.90
2022-09-07T11:17:54.386Z,1.10
2022-09-07T11:20:37.445Z,1.10
2022-09-07T11:23:13.407Z,0.63
2022-09-07T11:25:47.648Z,0.93
2022-09-07T11:28:17.146Z,0.80
2022-09-07T11:30:59.852Z,0.90
2022-09-07T11:33:29.575Z,0.90
2022-09-07T11:36:12.761Z,0.95
2022-09-07T11:38:46.450Z,0.90
2022-09-07T11:41:28.928Z,0.77
2022-09-07T11:44:02.678Z,0.88
2022-09-07T11:46:53.609Z,1.10
2022-09-07T11:49:20.845Z,1.00
2022-09-07T11:51:53.915Z,0.90
2022-09-07T11:54:48.659Z,0.90
2022-09-07T11:57:15.796Z,0.95
2022-09-07T11:59:58.703Z,0.68
2022-09-07T12:02:58.915Z,0.82
2022-09-07T12:05:48.721Z,0.88
2022-09-07T12:08:18.614Z,0.80
2022-09-07T12:11:01.603Z,1.20
2022-09-07T12:13:47.124Z,0.88
2022-09-07T12:16:36.459Z,1.00
2022-09-07T12:19:17.296Z,0.88
2022-09-07T12:21:53.618Z,0.70
2022-09-07T12:24:32.945Z,0.90
2022-09-07T12:27:07.625Z,0.88
2022-09-07T12:29:34.825Z,0.60
2022-09-07T12:35:03.057Z,0.80
2022-09-07T12:37:37.737Z,0.77
2022-09-07T12:40:30.911Z,0.65
2022-09-07T12:43:13.301Z,0.70
2022-09-07T12:45:47.575Z,0.70
2022-09-07T12:48:20.758Z,0.70
2022-09-07T12:51:02.689Z,0.90
2022-09-07T12:53:38.990Z,0.75
2022-09-07T12:56:18.015Z,0.77
2022-09-07T12:58:45.473Z,0.70
2022-09-07T13:01:38.659Z,1.00
2022-09-07T13:04:06.019Z,0.80
2022-09-07T13:09:43.599Z,0.90
2022-09-07T13:15:38.912Z,0.65
2022-09-07T13:18:12.795Z,0.80
2022-09-07T13:20:46.659Z,0.90
2022-09-07T13:23:25.191Z,0.88
2022-09-07T13:26:00.711Z,0.60
2022-09-07T13:28:31.367Z,0.70
2022-09-07T13:31:13.139Z,0.90
2022-09-07T13:33:48.236Z,1.10
2022-09-07T13:36:40.864Z,0.80
2022-09-07T13:39:09.640Z,0.98
2022-09-07T13:41:38.625Z,0.95
2022-09-07T13:44:12.981Z,0.90
2022-09-07T13:46:45.784Z,1.00
2022-09-07T13:49:39.715Z,0.70
2022-09-07T13:52:22.767Z,0.60
2022-09-07T13:54:56.627Z,0.88
2022-09-07T13:57:30.074Z,1.00
2022-09-07T14:00:08.810Z,0.90
2022-09-07T14:02:36.624Z,1.02
2022-09-07T14:05:04.324Z,0.75
2022-09-07T14:07:38.670Z,0.80
2022-09-07T14:10:06.066Z,0.70
2022-09-07T14:12:33.235Z,1.00
2022-09-07T14:15:17.632Z,0.90
2022-09-07T14:18:00.683Z,0.80
2022-09-07T14:20:35.660Z,0.80
2022-09-07T14:23:02.765Z,0.93
2022-09-07T14:25:30.149Z,0.80
2022-09-07T14:28:05.680Z,0.85
2022-09-07T14:30:33.573Z,1.00
2022-09-07T14:33:04.725Z,0.60
2022-09-07T14:35:44.651Z,0.65
2022-09-07T14:38:15.086Z,0.75
2022-09-07T14:40:42.554Z,0.63
2022-09-07T14:43:35.674Z,1.98
2022-09-07T14:46:20.010Z,0.90
2022-09-07T14:48:55.726Z,0.75
2022-09-07T14:51:35.213Z,0.70
2022-09-07T14:54:12.650Z,0.90
2022-09-07T14:56:41.638Z,0.70
2022-09-07T14:59:35.679Z,0.70
2022-09-07T15:02:35.217Z,0.82
2022-09-07T15:05:25.499Z,0.70
2022-09-07T15:08:02.846Z,0.95
2022-09-07T15:11:33.014Z,0.83
2022-09-07T15:13:34.169Z,0.73
2022-09-07T15:16:09.613Z,0.65
2022-09-07T15:18:55.866Z,0.75
2022-09-07T15:21:30.732Z,0.82
2022-09-07T15:23:58.702Z,0.80
2022-09-07T15:29:24.206Z,0.52
2022-09-07T15:32:01.716Z,0.77
2022-09-07T15:34:38.740Z,0.68
2022-09-07T15:38:01.131Z,0.75
2022-09-07T15:39:59.732Z,1.70
2022-09-07T15:45:20.624Z,0.90
2022-09-07T15:47:51.895Z,0.80
2022-09-07T15:50:28.722Z,0.70
2022-09-07T15:52:55.802Z,0.80
2022-09-07T15:55:24.357Z,0.90
2022-09-07T15:58:10.934Z,0.70
2022-09-07T16:00:39.210Z,0.73
2022-09-07T16:05:53.619Z,0.73
2022-09-07T16:08:32.366Z,0.70
2022-09-07T16:11:12.491Z,0.70
2022-09-07T16:13:48.612Z,0.90
2022-09-07T16:16:16.396Z,0.73
2022-09-07T16:19:01.955Z,0.95
2022-09-07T16:21:29.461Z,1.10
2022-09-07T16:23:56.642Z,0.90
2022-09-07T16:26:31.663Z,0.85
2022-09-07T16:28:58.882Z,0.70
2022-09-07T16:31:26.951Z,0.60
2022-09-07T16:34:00.736Z,0.90
2022-09-07T16:36:27.971Z,1.05
2022-09-07T16:38:56.051Z,1.02
2022-09-07T16:41:33.845Z,0.77
2022-09-07T16:44:01.085Z,0.85
2022-09-07T16:46:30.548Z,0.90
2022-09-07T16:49:04.790Z,0.77
2022-09-07T16:51:32.007Z,0.70
2022-09-07T16:53:59.707Z,0.80
2022-09-07T16:56:38.810Z,0.85
2022-09-07T16:59:08.612Z,0.63
2022-09-07T17:01:44.737Z,0.70
2022-09-07T17:04:12.192Z,0.93
2022-09-07T17:06:39.913Z,0.80
2022-09-07T17:09:13.836Z,0.82
2022-09-07T17:11:41.494Z,0.88
2022-09-07T17:16:46.898Z,0.60
2022-09-07T17:19:29.431Z,0.80
2022-09-07T17:22:04.818Z,0.55
2022-09-07T17:24:32.557Z,0.90
2022-09-07T17:26:59.890Z,0.90
2022-09-07T17:29:37.865Z,0.93
2022-09-07T17:34:58.953Z,0.77
2022-09-07T17:37:26.292Z,1.00
2022-09-07T17:39:53.559Z,0.68
2022-09-07T17:43:38.780Z,1.30
2022-09-07T17:45:14.919Z,0.93
2022-09-07T17:47:48.863Z,1.00
2022-09-07T17:50:16.039Z,0.90
2022-09-07T17:52:45.996Z,1.10
2022-09-07T17:55:19.776Z,1.13
2022-09-07T17:57:46.939Z,1.10
2022-09-07T18:00:14.377Z,1.00
2022-09-07T18:02:47.752Z,0.77
2022-09-07T18:05:15.047Z,1.23
2022-09-07T18:07:42.149Z,1.02
2022-09-07T18:10:16.676Z,1.10
2022-09-07T18:12:43.844Z,0.85
2022-09-07T18:15:11.212Z,0.85
2022-09-07T18:17:45.854Z,1.17
2022-09-07T18:20:19.576Z,0.85
2022-09-07T18:22:53.895Z,1.10
2022-09-07T18:25:21.058Z,1.65
2022-09-07T18:29:03.104Z,0.88
2022-09-07T18:30:46.858Z,0.85
2022-09-07T18:33:15.052Z,0.98
2022-09-07T18:35:45.353Z,1.35
2022-09-07T18:38:23.954Z,1.20
2022-09-07T18:40:59.934Z,1.10
2022-09-07T18:43:34.034Z,1.20
2022-09-07T18:46:05.903Z,1.30
2022-09-07T18:48:40.886Z,1.10
2022-09-07T18:51:09.785Z,1.00
2022-09-07T18:53:37.304Z,1.40
2022-09-07T18:56:22.045Z,1.50
2022-09-07T18:58:49.437Z,1.20
2022-09-07T19:01:17.932Z,1.25
2022-09-07T19:03:52.743Z,0.95
2022-09-07T19:06:19.943Z,1.40
2022-09-07T19:08:47.106Z,1.17
2022-09-07T19:11:24.723Z,1.33
2022-09-07T19:14:04.329Z,1.40
2022-09-07T19:16:39.862Z,1.30
2022-09-07T19:19:14.242Z,1.75
2022-09-07T19:21:50.907Z,1.40
2022-09-07T19:24:19.064Z,1.55
2022-09-07T19:26:47.664Z,1.50
2022-09-07T19:29:23.887Z,1.08
2022-09-07T19:32:04.689Z,1.50
2022-09-07T19:34:39.905Z,1.90
2022-09-07T19:37:07.738Z,1.50
2022-09-07T19:39:34.891Z,1.65
2022-09-07T19:42:11.856Z,1.48
2022-09-07T19:44:39.067Z,1.88
2022-09-07T19:47:06.940Z,1.55
2022-09-07T19:49:41.098Z,1.73
2022-09-07T19:52:08.245Z,1.73
2022-09-07T19:54:36.322Z,1.90
2022-09-07T19:57:11.802Z,1.58
2022-09-07T19:59:39.406Z,1.70
2022-09-07T20:04:40.766Z,1.83
2022-09-07T20:07:08.066Z,1.83
2022-09-07T20:09:35.142Z,1.55
2022-09-07T20:12:16.073Z,1.80
2022-09-07T20:14:43.274Z,1.45
2022-09-07T20:17:23.800Z,1.83
2022-09-07T20:19:57.670Z,1.88
2022-09-07T20:22:31.775Z,1.80
2022-09-07T20:24:58.986Z,1.90
2022-09-07T20:27:26.468Z,1.77
2022-09-07T20:30:00.901Z,1.95
2022-09-07T20:32:31.172Z,1.90
2022-09-07T20:34:58.254Z,1.90
2022-09-07T20:37:34.765Z,1.90
2022-09-07T20:40:04.097Z,2.20
2022-09-07T20:42:31.483Z,2.38
2022-09-07T20:45:05.784Z,2.20
2022-09-07T20:47:33.031Z,1.77
2022-09-07T20:50:00.146Z,1.95
2022-09-07T20:52:39.047Z,2.10
2022-09-07T20:55:06.415Z,1.90
2022-09-07T20:57:33.545Z,2.45
2022-09-07T21:00:07.866Z,2.00
2022-09-07T21:02:35.928Z,1.95
2022-09-07T21:05:03.068Z,1.90
2022-09-07T21:07:36.994Z,1.98
2022-09-07T21:10:06.718Z,2.00
2022-09-07T21:12:34.237Z,2.28
2022-09-07T21:15:07.669Z,1.90
2022-09-07T21:17:41.662Z,2.10
2022-09-07T21:20:22.696Z,2.03
2022-09-07T21:22:50.089Z,2.08
2022-09-07T21:25:17.721Z,2.00
2022-09-07T21:30:19.220Z,2.22
2022-09-07T21:32:49.999Z,1.90
2022-09-07T21:35:23.803Z,2.13
2022-09-07T21:37:51.030Z,1.67
2022-09-07T21:40:18.244Z,2.17
2022-09-07T21:42:52.029Z,2.42
2022-09-07T21:45:19.315Z,1.98
2022-09-07T21:47:46.447Z,2.15
2022-09-07T21:50:20.805Z,1.90
2022-09-07T21:52:48.021Z,1.90
2022-09-07T21:55:15.300Z,2.88
2022-09-07T21:57:48.890Z,1.65
2022-09-07T22:00:16.346Z,2.00
2022-09-07T22:02:43.478Z,1.92
2022-09-07T22:05:17.868Z,2.08
2022-09-07T22:07:45.123Z,2.10
2022-09-07T22:10:12.436Z,2.50
2022-09-07T22:12:45.909Z,2.00
2022-09-07T22:15:13.085Z,1.95
2022-09-07T22:17:53.798Z,1.70
2022-09-07T22:20:27.607Z,2.00
2022-09-07T22:23:01.677Z,2.00
2022-09-07T22:25:28.904Z,1.98
2022-09-07T22:27:56.545Z,1.80
2022-09-07T22:32:57.034Z,1.80
2022-09-07T22:35:25.107Z,2.35
2022-09-07T22:37:58.840Z,1.90
2022-09-07T22:40:26.107Z,2.25
2022-09-07T22:42:53.227Z,1.92
2022-09-07T22:45:26.966Z,2.10
2022-09-07T22:47:54.136Z,2.10
2022-09-07T22:50:21.232Z,1.90
2022-09-07T22:52:54.877Z,2.05
2022-09-07T22:55:22.123Z,1.98
2022-09-07T22:57:49.225Z,2.30
2022-09-07T23:00:23.778Z,1.80
2022-09-07T23:02:51.058Z,1.95
2022-09-07T23:05:18.144Z,2.03
2022-09-07T23:07:51.850Z,2.00
2022-09-07T23:10:19.073Z,1.95
2022-09-07T23:12:46.177Z,2.20
2022-09-07T23:15:19.779Z,1.67
2022-09-07T23:18:06.608Z,2.03
2022-09-07T23:20:40.802Z,2.00
2022-09-07T23:23:08.184Z,1.85
2022-09-07T23:25:38.781Z,2.30
2022-09-07T23:28:12.930Z,1.88
2022-09-07T23:30:40.636Z,1.58
2022-09-07T23:33:07.921Z,1.80
2022-09-07T23:35:41.840Z,1.60
2022-09-07T23:38:09.207Z,1.77
2022-09-07T23:40:36.441Z,1.70
2022-09-07T23:43:09.822Z,1.75
2022-09-07T23:45:36.999Z,1.42
2022-09-07T23:48:04.216Z,1.88
2022-09-07T23:50:38.962Z,1.70
2022-09-07T23:53:06.336Z,1.73
2022-09-07T23:55:33.449Z,1.85
2022-09-07T23:58:06.867Z,1.50
